Terminal Aerodrome Forecast
Issued by NWS

Home | Current Version | Previous Version | Text Only | Print | Product List | Glossary On
Versions: 1 2 3 4 5 6 7 8 9 10 11 12 13 14 15 16 17 18 19 20 21 22 23 24 25 26 27 28 29 30 31 32 33 34 35 36 37 38
000
FTUS41 KRNK 281721
TAFBCB
TAF
KBCB 281721Z 2818/0118 08004KT P6SM SCT015 BKN035
     FM010100 10003KT P6SM SCT007 OVC020
     FM010800 12004KT P6SM BKN005 OVC015
     FM011000 VRB03KT 5SM -SNPL OVC005
     FM011200 00000KT 1/2SM -FZRA FG OVC007=

USA.gov is the U.S. government's official web portal to all federal, state and local government web resources and services.